sensor_id;sensor_type;location;lat;lon;timestamp;P1;durP1;ratioP1;P2;durP2;ratioP2
81336;SDS011;70799;48.000;10.584;2024-03-08T00:01:22;27.67;;;12.20;;
81336;SDS011;70799;48.000;10.584;2024-03-08T00:03:58;31.33;;;12.30;;
81336;SDS011;70799;48.000;10.584;2024-03-08T00:06:35;30.20;;;13.27;;
81336;SDS011;70799;48.000;10.584;2024-03-08T00:09:12;34.00;;;14.27;;
81336;SDS011;70799;48.000;10.584;2024-03-08T00:11:48;28.35;;;13.57;;
81336;SDS011;70799;48.000;10.584;2024-03-08T00:14:24;35.78;;;14.13;;
81336;SDS011;70799;48.000;10.584;2024-03-08T00:17:00;31.60;;;13.57;;
81336;SDS011;70799;48.000;10.584;2024-03-08T00:19:35;33.10;;;14.10;;
81336;SDS011;70799;48.000;10.584;2024-03-08T00:22:11;29.95;;;12.32;;
81336;SDS011;70799;48.000;10.584;2024-03-08T00:24:47;32.47;;;13.93;;
81336;SDS011;70799;48.000;10.584;2024-03-08T00:30:01;29.50;;;11.75;;
81336;SDS011;70799;48.000;10.584;2024-03-08T00:32:37;29.80;;;12.70;;
81336;SDS011;70799;48.000;10.584;2024-03-08T00:35:13;35.95;;;14.98;;
81336;SDS011;70799;48.000;10.584;2024-03-08T00:37:50;26.48;;;12.02;;
81336;SDS011;70799;48.000;10.584;2024-03-08T00:40:28;33.45;;;14.30;;
81336;SDS011;70799;48.000;10.584;2024-03-08T00:43:04;29.85;;;13.10;;
81336;SDS011;70799;48.000;10.584;2024-03-08T00:45:40;30.45;;;13.75;;
81336;SDS011;70799;48.000;10.584;2024-03-08T00:48:16;30.25;;;12.45;;
81336;SDS011;70799;48.000;10.584;2024-03-08T00:50:52;36.72;;;14.43;;
81336;SDS011;70799;48.000;10.584;2024-03-08T00:53:29;33.28;;;13.07;;
81336;SDS011;70799;48.000;10.584;2024-03-08T00:56:05;33.13;;;12.95;;
81336;SDS011;70799;48.000;10.584;2024-03-08T00:58:42;28.77;;;12.15;;
81336;SDS011;70799;48.000;10.584;2024-03-08T01:05:11;32.30;;;13.60;;
81336;SDS011;70799;48.000;10.584;2024-03-08T01:07:59;34.08;;;14.25;;
81336;SDS011;70799;48.000;10.584;2024-03-08T01:10:38;33.08;;;13.07;;
81336;SDS011;70799;48.000;10.584;2024-03-08T01:13:14;36.03;;;13.88;;
81336;SDS011;70799;48.000;10.584;2024-03-08T01:15:51;31.73;;;14.20;;
81336;SDS011;70799;48.000;10.584;2024-03-08T01:18:27;32.22;;;13.20;;
81336;SDS011;70799;48.000;10.584;2024-03-08T01:21:04;27.85;;;12.32;;
81336;SDS011;70799;48.000;10.584;2024-03-08T01:23:40;35.67;;;14.05;;
81336;SDS011;70799;48.000;10.584;2024-03-08T01:26:16;35.08;;;14.55;;
81336;SDS011;70799;48.000;10.584;2024-03-08T01:28:52;34.05;;;13.57;;
81336;SDS011;70799;48.000;10.584;2024-03-08T01:31:31;35.75;;;14.88;;
81336;SDS011;70799;48.000;10.584;2024-03-08T01:34:10;37.95;;;14.93;;
81336;SDS011;70799;48.000;10.584;2024-03-08T01:36:46;39.38;;;14.20;;
81336;SDS011;70799;48.000;10.584;2024-03-08T01:39:22;37.08;;;14.65;;
81336;SDS011;70799;48.000;10.584;2024-03-08T01:41:59;42.05;;;15.80;;
81336;SDS011;70799;48.000;10.584;2024-03-08T01:44:37;37.72;;;16.30;;
81336;SDS011;70799;48.000;10.584;2024-03-08T01:47:16;36.83;;;14.02;;
81336;SDS011;70799;48.000;10.584;2024-03-08T01:49:52;40.85;;;14.55;;
81336;SDS011;70799;48.000;10.584;2024-03-08T01:52:28;37.10;;;15.63;;
81336;SDS011;70799;48.000;10.584;2024-03-08T01:55:05;36.92;;;16.02;;
81336;SDS011;70799;48.000;10.584;2024-03-08T01:57:41;34.78;;;14.18;;
81336;SDS011;70799;48.000;10.584;2024-03-08T02:00:18;35.83;;;14.80;;
81336;SDS011;70799;48.000;10.584;2024-03-08T02:02:55;36.05;;;13.95;;
81336;SDS011;70799;48.000;10.584;2024-03-08T02:05:34;35.83;;;14.30;;
81336;SDS011;70799;48.000;10.584;2024-03-08T02:08:11;32.80;;;12.95;;
81336;SDS011;70799;48.000;10.584;2024-03-08T02:10:47;30.98;;;13.63;;
81336;SDS011;70799;48.000;10.584;2024-03-08T02:13:23;34.03;;;13.07;;
81336;SDS011;70799;48.000;10.584;2024-03-08T02:16:00;36.25;;;15.70;;
81336;SDS011;70799;48.000;10.584;2024-03-08T02:18:36;32.72;;;15.13;;
81336;SDS011;70799;48.000;10.584;2024-03-08T02:21:12;35.00;;;13.70;;
81336;SDS011;70799;48.000;10.584;2024-03-08T02:23:50;35.70;;;15.18;;
81336;SDS011;70799;48.000;10.584;2024-03-08T02:26:27;37.67;;;14.60;;
81336;SDS011;70799;48.000;10.584;2024-03-08T02:29:03;34.70;;;14.60;;
81336;SDS011;70799;48.000;10.584;2024-03-08T02:31:39;29.92;;;13.18;;
81336;SDS011;70799;48.000;10.584;2024-03-08T02:34:15;34.45;;;14.93;;
81336;SDS011;70799;48.000;10.584;2024-03-08T02:36:52;35.45;;;14.55;;
81336;SDS011;70799;48.000;10.584;2024-03-08T02:39:28;34.33;;;14.18;;
81336;SDS011;70799;48.000;10.584;2024-03-08T02:42:04;34.60;;;14.27;;
81336;SDS011;70799;48.000;10.584;2024-03-08T02:44:44;36.92;;;14.52;;
81336;SDS011;70799;48.000;10.584;2024-03-08T02:47:20;38.00;;;15.45;;
81336;SDS011;70799;48.000;10.584;2024-03-08T02:49:59;37.47;;;13.20;;
81336;SDS011;70799;48.000;10.584;2024-03-08T02:52:40;32.88;;;14.63;;
81336;SDS011;70799;48.000;10.584;2024-03-08T02:55:18;32.22;;;14.13;;
81336;SDS011;70799;48.000;10.584;2024-03-08T02:57:54;38.80;;;16.25;;
81336;SDS011;70799;48.000;10.584;2024-03-08T03:00:34;36.75;;;14.75;;
81336;SDS011;70799;48.000;10.584;2024-03-08T03:03:11;38.03;;;15.70;;
81336;SDS011;70799;48.000;10.584;2024-03-08T03:05:47;29.33;;;12.43;;
81336;SDS011;70799;48.000;10.584;2024-03-08T03:08:23;39.53;;;15.20;;
81336;SDS011;70799;48.000;10.584;2024-03-08T03:10:59;35.80;;;15.20;;
81336;SDS011;70799;48.000;10.584;2024-03-08T03:13:39;36.85;;;14.80;;
81336;SDS011;70799;48.000;10.584;2024-03-08T03:16:20;37.35;;;15.48;;
81336;SDS011;70799;48.000;10.584;2024-03-08T03:18:56;38.95;;;15.63;;
81336;SDS011;70799;48.000;10.584;2024-03-08T03:21:34;37.10;;;16.98;;
81336;SDS011;70799;48.000;10.584;2024-03-08T03:24:10;38.97;;;14.75;;
81336;SDS011;70799;48.000;10.584;2024-03-08T03:26:48;31.30;;;14.60;;
81336;SDS011;70799;48.000;10.584;2024-03-08T03:29:24;34.05;;;14.30;;
81336;SDS011;70799;48.000;10.584;2024-03-08T03:32:00;32.25;;;15.25;;
81336;SDS011;70799;48.000;10.584;2024-03-08T03:34:38;34.28;;;15.45;;
81336;SDS011;70799;48.000;10.584;2024-03-08T03:37:15;39.42;;;15.07;;
81336;SDS011;70799;48.000;10.584;2024-03-08T03:39:51;35.80;;;14.15;;
81336;SDS011;70799;48.000;10.584;2024-03-08T03:42:29;40.72;;;16.92;;
81336;SDS011;70799;48.000;10.584;2024-03-08T03:45:06;38.60;;;15.15;;
81336;SDS011;70799;48.000;10.584;2024-03-08T03:47:42;34.38;;;15.45;;
81336;SDS011;70799;48.000;10.584;2024-03-08T03:50:18;32.22;;;13.93;;
81336;SDS011;70799;48.000;10.584;2024-03-08T03:52:55;34.22;;;15.60;;
81336;SDS011;70799;48.000;10.584;2024-03-08T03:55:34;36.53;;;14.43;;
81336;SDS011;70799;48.000;10.584;2024-03-08T03:58:12;34.00;;;14.55;;
81336;SDS011;70799;48.000;10.584;2024-03-08T04:00:54;36.65;;;15.95;;
81336;SDS011;70799;48.000;10.584;2024-03-08T04:03:30;33.58;;;14.02;;
81336;SDS011;70799;48.000;10.584;2024-03-08T04:06:06;41.55;;;15.90;;
81336;SDS011;70799;48.000;10.584;2024-03-08T04:08:42;37.45;;;14.85;;
81336;SDS011;70799;48.000;10.584;2024-03-08T04:11:18;35.90;;;14.63;;
81336;SDS011;70799;48.000;10.584;2024-03-08T04:13:54;41.22;;;15.45;;
81336;SDS011;70799;48.000;10.584;2024-03-08T04:16:30;36.78;;;14.75;;
81336;SDS011;70799;48.000;10.584;2024-03-08T04:19:06;40.63;;;15.30;;
81336;SDS011;70799;48.000;10.584;2024-03-08T04:21:42;37.65;;;15.82;;
81336;SDS011;70799;48.000;10.584;2024-03-08T04:26:54;35.78;;;14.68;;
81336;SDS011;70799;48.000;10.584;2024-03-08T04:29:33;37.33;;;16.60;;
81336;SDS011;70799;48.000;10.584;2024-03-08T04:32:09;30.63;;;12.80;;
81336;SDS011;70799;48.000;10.584;2024-03-08T04:34:45;33.75;;;14.20;;
81336;SDS011;70799;48.000;10.584;2024-03-08T04:37:21;33.67;;;14.15;;
81336;SDS011;70799;48.000;10.584;2024-03-08T04:39:57;38.00;;;15.35;;
81336;SDS011;70799;48.000;10.584;2024-03-08T04:42:36;34.88;;;14.43;;
81336;SDS011;70799;48.000;10.584;2024-03-08T04:45:13;38.53;;;14.68;;
81336;SDS011;70799;48.000;10.584;2024-03-08T04:47:49;36.90;;;14.52;;
81336;SDS011;70799;48.000;10.584;2024-03-08T04:50:25;43.42;;;15.05;;
81336;SDS011;70799;48.000;10.584;2024-03-08T04:53:04;42.13;;;15.88;;
81336;SDS011;70799;48.000;10.584;2024-03-08T04:55:40;39.25;;;15.18;;
81336;SDS011;70799;48.000;10.584;2024-03-08T04:58:16;34.72;;;13.02;;
81336;SDS011;70799;48.000;10.584;2024-03-08T05:00:53;38.25;;;14.50;;
81336;SDS011;70799;48.000;10.584;2024-03-08T05:03:29;36.72;;;14.60;;
81336;SDS011;70799;48.000;10.584;2024-03-08T05:06:04;39.60;;;15.88;;
81336;SDS011;70799;48.000;10.584;2024-03-08T05:08:40;41.42;;;15.35;;
81336;SDS011;70799;48.000;10.584;2024-03-08T05:11:16;41.50;;;16.08;;
81336;SDS011;70799;48.000;10.584;2024-03-08T05:13:53;44.15;;;15.70;;
81336;SDS011;70799;48.000;10.584;2024-03-08T05:16:32;41.03;;;15.20;;
81336;SDS011;70799;48.000;10.584;2024-03-08T05:19:08;49.08;;;15.77;;
81336;SDS011;70799;48.000;10.584;2024-03-08T05:21:45;45.00;;;16.92;;
81336;SDS011;70799;48.000;10.584;2024-03-08T05:24:21;39.40;;;14.05;;
81336;SDS011;70799;48.000;10.584;2024-03-08T05:26:57;39.53;;;15.52;;
81336;SDS011;70799;48.000;10.584;2024-03-08T05:29:35;40.63;;;15.35;;
81336;SDS011;70799;48.000;10.584;2024-03-08T05:32:11;44.72;;;15.65;;
81336;SDS011;70799;48.000;10.584;2024-03-08T05:34:47;44.08;;;15.30;;
81336;SDS011;70799;48.000;10.584;2024-03-08T05:37:23;47.78;;;15.63;;
81336;SDS011;70799;48.000;10.584;2024-03-08T05:40:02;42.85;;;15.98;;
81336;SDS011;70799;48.000;10.584;2024-03-08T05:42:47;39.22;;;14.30;;
81336;SDS011;70799;48.000;10.584;2024-03-08T05:45:23;44.53;;;16.27;;
81336;SDS011;70799;48.000;10.584;2024-03-08T05:48:00;45.03;;;15.52;;
81336;SDS011;70799;48.000;10.584;2024-03-08T05:50:37;43.13;;;16.63;;
81336;SDS011;70799;48.000;10.584;2024-03-08T05:53:15;45.50;;;16.60;;
81336;SDS011;70799;48.000;10.584;2024-03-08T05:55:51;44.72;;;15.70;;
81336;SDS011;70799;48.000;10.584;2024-03-08T05:58:30;46.35;;;15.85;;
81336;SDS011;70799;48.000;10.584;2024-03-08T06:01:06;47.92;;;16.40;;
81336;SDS011;70799;48.000;10.584;2024-03-08T06:03:44;41.13;;;14.45;;
81336;SDS011;70799;48.000;10.584;2024-03-08T06:06:21;47.60;;;16.08;;
81336;SDS011;70799;48.000;10.584;2024-03-08T06:08:58;40.25;;;14.55;;
81336;SDS011;70799;48.000;10.584;2024-03-08T06:11:41;46.60;;;15.60;;
81336;SDS011;70799;48.000;10.584;2024-03-08T06:14:18;46.10;;;16.75;;
81336;SDS011;70799;48.000;10.584;2024-03-08T06:16:55;37.80;;;14.32;;
81336;SDS011;70799;48.000;10.584;2024-03-08T06:19:33;39.13;;;14.70;;
81336;SDS011;70799;48.000;10.584;2024-03-08T06:22:08;43.72;;;14.23;;
81336;SDS011;70799;48.000;10.584;2024-03-08T06:24:45;47.70;;;16.73;;
81336;SDS011;70799;48.000;10.584;2024-03-08T06:27:23;47.63;;;15.73;;
81336;SDS011;70799;48.000;10.584;2024-03-08T06:29:59;43.03;;;16.17;;
81336;SDS011;70799;48.000;10.584;2024-03-08T06:32:40;40.53;;;16.00;;
81336;SDS011;70799;48.000;10.584;2024-03-08T06:35:16;41.03;;;14.82;;
81336;SDS011;70799;48.000;10.584;2024-03-08T06:37:52;41.88;;;15.25;;
81336;SDS011;70799;48.000;10.584;2024-03-08T06:40:28;39.17;;;15.27;;
81336;SDS011;70799;48.000;10.584;2024-03-08T06:43:04;47.38;;;16.52;;
81336;SDS011;70799;48.000;10.584;2024-03-08T06:45:43;48.97;;;16.88;;
81336;SDS011;70799;48.000;10.584;2024-03-08T06:48:21;42.45;;;14.25;;
81336;SDS011;70799;48.000;10.584;2024-03-08T06:50:59;44.97;;;15.00;;
81336;SDS011;70799;48.000;10.584;2024-03-08T06:53:37;45.00;;;14.88;;
81336;SDS011;70799;48.000;10.584;2024-03-08T06:56:13;36.75;;;13.88;;
81336;SDS011;70799;48.000;10.584;2024-03-08T06:58:49;38.45;;;12.93;;
81336;SDS011;70799;48.000;10.584;2024-03-08T07:01:26;35.30;;;13.02;;
81336;SDS011;70799;48.000;10.584;2024-03-08T07:04:02;34.22;;;12.75;;
81336;SDS011;70799;48.000;10.584;2024-03-08T07:06:40;31.70;;;13.65;;
81336;SDS011;70799;48.000;10.584;2024-03-08T07:09:16;33.47;;;13.30;;
81336;SDS011;70799;48.000;10.584;2024-03-08T07:11:52;40.20;;;13.63;;
81336;SDS011;70799;48.000;10.584;2024-03-08T07:14:29;37.10;;;12.55;;
81336;SDS011;70799;48.000;10.584;2024-03-08T07:17:06;37.95;;;13.15;;
81336;SDS011;70799;48.000;10.584;2024-03-08T07:19:43;34.42;;;13.02;;
81336;SDS011;70799;48.000;10.584;2024-03-08T07:22:19;36.20;;;13.25;;
81336;SDS011;70799;48.000;10.584;2024-03-08T07:24:55;35.92;;;13.90;;
81336;SDS011;70799;48.000;10.584;2024-03-08T07:27:50;33.03;;;12.57;;
81336;SDS011;70799;48.000;10.584;2024-03-08T07:30:27;29.17;;;12.10;;
81336;SDS011;70799;48.000;10.584;2024-03-08T07:33:16;32.25;;;13.07;;
81336;SDS011;70799;48.000;10.584;2024-03-08T07:35:52;40.50;;;13.48;;
81336;SDS011;70799;48.000;10.584;2024-03-08T07:38:28;33.35;;;12.07;;
81336;SDS011;70799;48.000;10.584;2024-03-08T07:41:04;35.45;;;13.02;;
81336;SDS011;70799;48.000;10.584;2024-03-08T07:43:42;38.15;;;13.50;;
81336;SDS011;70799;48.000;10.584;2024-03-08T07:46:18;35.03;;;12.80;;
81336;SDS011;70799;48.000;10.584;2024-03-08T07:51:32;30.38;;;10.18;;
81336;SDS011;70799;48.000;10.584;2024-03-08T07:54:09;31.52;;;12.35;;
81336;SDS011;70799;48.000;10.584;2024-03-08T07:56:45;40.67;;;13.45;;
81336;SDS011;70799;48.000;10.584;2024-03-08T07:59:23;41.95;;;13.20;;
81336;SDS011;70799;48.000;10.584;2024-03-08T08:01:59;37.50;;;13.70;;
81336;SDS011;70799;48.000;10.584;2024-03-08T08:04:35;34.88;;;13.27;;
81336;SDS011;70799;48.000;10.584;2024-03-08T08:07:11;33.42;;;12.65;;
81336;SDS011;70799;48.000;10.584;2024-03-08T08:09:47;36.80;;;13.38;;
81336;SDS011;70799;48.000;10.584;2024-03-08T08:12:22;32.75;;;12.95;;
81336;SDS011;70799;48.000;10.584;2024-03-08T08:15:00;35.08;;;12.75;;
81336;SDS011;70799;48.000;10.584;2024-03-08T08:17:37;30.58;;;12.35;;
81336;SDS011;70799;48.000;10.584;2024-03-08T08:22:50;30.05;;;9.85;;
81336;SDS011;70799;48.000;10.584;2024-03-08T08:25:27;32.15;;;11.52;;
81336;SDS011;70799;48.000;10.584;2024-03-08T08:28:03;31.85;;;11.45;;
81336;SDS011;70799;48.000;10.584;2024-03-08T08:30:39;40.55;;;13.35;;
81336;SDS011;70799;48.000;10.584;2024-03-08T08:33:15;43.00;;;14.57;;
81336;SDS011;70799;48.000;10.584;2024-03-08T08:38:28;22.30;;;9.55;;
81336;SDS011;70799;48.000;10.584;2024-03-08T08:41:04;32.97;;;12.13;;
81336;SDS011;70799;48.000;10.584;2024-03-08T08:43:40;26.85;;;10.90;;
81336;SDS011;70799;48.000;10.584;2024-03-08T08:46:33;31.77;;;11.48;;
81336;SDS011;70799;48.000;10.584;2024-03-08T08:49:13;29.00;;;11.43;;
81336;SDS011;70799;48.000;10.584;2024-03-08T08:51:52;35.25;;;12.50;;
81336;SDS011;70799;48.000;10.584;2024-03-08T08:54:40;26.27;;;11.98;;
81336;SDS011;70799;48.000;10.584;2024-03-08T08:57:21;27.00;;;10.82;;
81336;SDS011;70799;48.000;10.584;2024-03-08T08:59:58;27.60;;;11.43;;
81336;SDS011;70799;48.000;10.584;2024-03-08T09:02:39;27.48;;;11.93;;
81336;SDS011;70799;48.000;10.584;2024-03-08T09:05:16;28.58;;;12.15;;
81336;SDS011;70799;48.000;10.584;2024-03-08T09:07:53;30.55;;;11.43;;
81336;SDS011;70799;48.000;10.584;2024-03-08T09:10:30;34.75;;;11.88;;
81336;SDS011;70799;48.000;10.584;2024-03-08T09:13:06;31.60;;;12.75;;
81336;SDS011;70799;48.000;10.584;2024-03-08T09:15:49;30.15;;;12.32;;
81336;SDS011;70799;48.000;10.584;2024-03-08T09:21:01;27.13;;;10.43;;
81336;SDS011;70799;48.000;10.584;2024-03-08T09:23:41;27.92;;;12.27;;
81336;SDS011;70799;48.000;10.584;2024-03-08T09:26:17;32.72;;;13.38;;
81336;SDS011;70799;48.000;10.584;2024-03-08T09:31:39;24.48;;;10.88;;
81336;SDS011;70799;48.000;10.584;2024-03-08T09:34:15;26.63;;;11.65;;
81336;SDS011;70799;48.000;10.584;2024-03-08T09:36:56;25.25;;;11.07;;
81336;SDS011;70799;48.000;10.584;2024-03-08T09:39:33;24.10;;;11.88;;
81336;SDS011;70799;48.000;10.584;2024-03-08T09:42:10;27.17;;;11.50;;
81336;SDS011;70799;48.000;10.584;2024-03-08T09:44:47;25.35;;;10.25;;
81336;SDS011;70799;48.000;10.584;2024-03-08T09:47:23;19.98;;;9.57;;
81336;SDS011;70799;48.000;10.584;2024-03-08T09:50:06;25.75;;;11.38;;
81336;SDS011;70799;48.000;10.584;2024-03-08T09:52:48;21.90;;;9.48;;
81336;SDS011;70799;48.000;10.584;2024-03-08T09:55:24;18.80;;;9.40;;
81336;SDS011;70799;48.000;10.584;2024-03-08T09:58:06;18.88;;;8.13;;
81336;SDS011;70799;48.000;10.584;2024-03-08T10:01:08;25.83;;;10.27;;
81336;SDS011;70799;48.000;10.584;2024-03-08T10:03:46;22.10;;;10.48;;
81336;SDS011;70799;48.000;10.584;2024-03-08T10:06:23;21.48;;;10.25;;
81336;SDS011;70799;48.000;10.584;2024-03-08T10:08:59;22.25;;;10.38;;
81336;SDS011;70799;48.000;10.584;2024-03-08T10:11:38;21.02;;;8.90;;
81336;SDS011;70799;48.000;10.584;2024-03-08T10:14:15;17.52;;;8.57;;
81336;SDS011;70799;48.000;10.584;2024-03-08T10:16:51;22.05;;;9.95;;
81336;SDS011;70799;48.000;10.584;2024-03-08T10:19:32;21.55;;;9.98;;
81336;SDS011;70799;48.000;10.584;2024-03-08T10:22:13;22.77;;;9.55;;
81336;SDS011;70799;48.000;10.584;2024-03-08T10:24:50;22.65;;;10.18;;
81336;SDS011;70799;48.000;10.584;2024-03-08T10:27:26;22.70;;;9.43;;
81336;SDS011;70799;48.000;10.584;2024-03-08T10:30:04;17.63;;;9.52;;
81336;SDS011;70799;48.000;10.584;2024-03-08T10:32:45;19.42;;;10.80;;
81336;SDS011;70799;48.000;10.584;2024-03-08T10:35:21;23.83;;;11.75;;
81336;SDS011;70799;48.000;10.584;2024-03-08T10:37:59;21.23;;;10.45;;
81336;SDS011;70799;48.000;10.584;2024-03-08T10:40:40;23.35;;;12.70;;
81336;SDS011;70799;48.000;10.584;2024-03-08T10:43:19;17.17;;;8.73;;
81336;SDS011;70799;48.000;10.584;2024-03-08T10:46:29;18.92;;;9.27;;
81336;SDS011;70799;48.000;10.584;2024-03-08T10:49:03;17.67;;;9.98;;
81336;SDS011;70799;48.000;10.584;2024-03-08T10:51:39;21.30;;;9.18;;
81336;SDS011;70799;48.000;10.584;2024-03-08T10:54:16;19.00;;;9.20;;
81336;SDS011;70799;48.000;10.584;2024-03-08T10:56:52;19.75;;;10.02;;
81336;SDS011;70799;48.000;10.584;2024-03-08T10:59:28;23.60;;;10.40;;
81336;SDS011;70799;48.000;10.584;2024-03-08T11:02:05;18.83;;;10.07;;
81336;SDS011;70799;48.000;10.584;2024-03-08T11:04:46;23.55;;;11.38;;
81336;SDS011;70799;48.000;10.584;2024-03-08T11:07:23;17.88;;;8.77;;
81336;SDS011;70799;48.000;10.584;2024-03-08T11:10:02;22.55;;;9.68;;
81336;SDS011;70799;48.000;10.584;2024-03-08T11:12:42;22.63;;;10.05;;
81336;SDS011;70799;48.000;10.584;2024-03-08T11:15:20;20.08;;;9.80;;
81336;SDS011;70799;48.000;10.584;2024-03-08T11:17:58;18.88;;;9.52;;
81336;SDS011;70799;48.000;10.584;2024-03-08T11:20:34;20.48;;;9.95;;
81336;SDS011;70799;48.000;10.584;2024-03-08T11:23:10;23.05;;;10.45;;
81336;SDS011;70799;48.000;10.584;2024-03-08T11:25:46;17.50;;;9.55;;
81336;SDS011;70799;48.000;10.584;2024-03-08T11:28:25;18.65;;;9.60;;
81336;SDS011;70799;48.000;10.584;2024-03-08T11:33:39;19.08;;;8.75;;
81336;SDS011;70799;48.000;10.584;2024-03-08T11:36:23;17.77;;;9.32;;
81336;SDS011;70799;48.000;10.584;2024-03-08T11:38:59;20.92;;;12.00;;
81336;SDS011;70799;48.000;10.584;2024-03-08T11:41:42;18.77;;;10.30;;
81336;SDS011;70799;48.000;10.584;2024-03-08T11:44:18;18.42;;;11.40;;
81336;SDS011;70799;48.000;10.584;2024-03-08T11:46:55;17.88;;;8.55;;
81336;SDS011;70799;48.000;10.584;2024-03-08T11:49:32;18.98;;;9.93;;
81336;SDS011;70799;48.000;10.584;2024-03-08T11:52:12;19.00;;;9.88;;
81336;SDS011;70799;48.000;10.584;2024-03-08T11:54:53;17.27;;;9.65;;
81336;SDS011;70799;48.000;10.584;2024-03-08T11:57:30;18.67;;;9.27;;
81336;SDS011;70799;48.000;10.584;2024-03-08T12:00:06;18.95;;;10.27;;
81336;SDS011;70799;48.000;10.584;2024-03-08T12:03:05;17.00;;;9.20;;
81336;SDS011;70799;48.000;10.584;2024-03-08T12:05:42;19.52;;;11.73;;
81336;SDS011;70799;48.000;10.584;2024-03-08T12:08:19;18.20;;;10.13;;
81336;SDS011;70799;48.000;10.584;2024-03-08T12:10:55;16.23;;;8.90;;
81336;SDS011;70799;48.000;10.584;2024-03-08T12:13:34;15.07;;;8.73;;
81336;SDS011;70799;48.000;10.584;2024-03-08T12:16:11;17.88;;;9.82;;
81336;SDS011;70799;48.000;10.584;2024-03-08T12:18:47;16.52;;;10.93;;
81336;SDS011;70799;48.000;10.584;2024-03-08T12:21:25;17.27;;;8.88;;
81336;SDS011;70799;48.000;10.584;2024-03-08T12:24:04;17.65;;;9.95;;
81336;SDS011;70799;48.000;10.584;2024-03-08T12:26:43;17.30;;;8.75;;
81336;SDS011;70799;48.000;10.584;2024-03-08T12:29:21;16.88;;;8.68;;
81336;SDS011;70799;48.000;10.584;2024-03-08T12:32:00;15.02;;;8.68;;
81336;SDS011;70799;48.000;10.584;2024-03-08T12:34:39;17.08;;;9.48;;
81336;SDS011;70799;48.000;10.584;2024-03-08T12:37:17;18.35;;;9.18;;
81336;SDS011;70799;48.000;10.584;2024-03-08T12:39:55;15.88;;;8.82;;
81336;SDS011;70799;48.000;10.584;2024-03-08T12:42:34;13.90;;;7.43;;
81336;SDS011;70799;48.000;10.584;2024-03-08T12:45:10;16.00;;;7.95;;
81336;SDS011;70799;48.000;10.584;2024-03-08T12:50:23;14.75;;;8.43;;
81336;SDS011;70799;48.000;10.584;2024-03-08T12:52:59;15.98;;;9.32;;
81336;SDS011;70799;48.000;10.584;2024-03-08T12:55:39;14.43;;;7.75;;
81336;SDS011;70799;48.000;10.584;2024-03-08T13:00:52;16.02;;;7.97;;
81336;SDS011;70799;48.000;10.584;2024-03-08T13:03:28;15.77;;;7.88;;
81336;SDS011;70799;48.000;10.584;2024-03-08T13:06:07;14.63;;;7.70;;
81336;SDS011;70799;48.000;10.584;2024-03-08T13:08:43;14.20;;;6.97;;
81336;SDS011;70799;48.000;10.584;2024-03-08T13:11:19;14.13;;;6.95;;
81336;SDS011;70799;48.000;10.584;2024-03-08T13:13:56;14.23;;;7.40;;
81336;SDS011;70799;48.000;10.584;2024-03-08T13:16:34;13.07;;;7.30;;
81336;SDS011;70799;48.000;10.584;2024-03-08T13:19:10;12.10;;;7.03;;
81336;SDS011;70799;48.000;10.584;2024-03-08T13:21:46;13.57;;;7.03;;
81336;SDS011;70799;48.000;10.584;2024-03-08T13:24:23;13.18;;;7.13;;
81336;SDS011;70799;48.000;10.584;2024-03-08T13:26:59;15.48;;;7.28;;
81336;SDS011;70799;48.000;10.584;2024-03-08T13:29:48;15.70;;;8.77;;
81336;SDS011;70799;48.000;10.584;2024-03-08T13:32:24;10.98;;;6.95;;
81336;SDS011;70799;48.000;10.584;2024-03-08T13:35:02;14.25;;;7.65;;
81336;SDS011;70799;48.000;10.584;2024-03-08T13:37:44;13.55;;;7.53;;
81336;SDS011;70799;48.000;10.584;2024-03-08T13:40:23;12.32;;;7.30;;
81336;SDS011;70799;48.000;10.584;2024-03-08T13:42:59;15.30;;;7.93;;
81336;SDS011;70799;48.000;10.584;2024-03-08T13:45:36;14.68;;;7.88;;
81336;SDS011;70799;48.000;10.584;2024-03-08T13:48:14;13.45;;;7.15;;
81336;SDS011;70799;48.000;10.584;2024-03-08T13:53:27;13.93;;;7.15;;
81336;SDS011;70799;48.000;10.584;2024-03-08T13:56:03;16.42;;;8.05;;
81336;SDS011;70799;48.000;10.584;2024-03-08T13:58:41;15.18;;;7.43;;
81336;SDS011;70799;48.000;10.584;2024-03-08T14:01:17;14.32;;;8.75;;
81336;SDS011;70799;48.000;10.584;2024-03-08T14:03:53;15.48;;;7.93;;
81336;SDS011;70799;48.000;10.584;2024-03-08T14:06:29;13.82;;;8.20;;
81336;SDS011;70799;48.000;10.584;2024-03-08T14:09:07;15.73;;;8.77;;
81336;SDS011;70799;48.000;10.584;2024-03-08T14:11:48;19.25;;;9.73;;
81336;SDS011;70799;48.000;10.584;2024-03-08T14:14:26;16.25;;;9.02;;
81336;SDS011;70799;48.000;10.584;2024-03-08T14:17:02;16.40;;;8.00;;
81336;SDS011;70799;48.000;10.584;2024-03-08T14:19:39;16.50;;;8.52;;
81336;SDS011;70799;48.000;10.584;2024-03-08T14:22:15;13.75;;;7.50;;
81336;SDS011;70799;48.000;10.584;2024-03-08T14:24:52;14.40;;;7.65;;
81336;SDS011;70799;48.000;10.584;2024-03-08T14:27:28;14.27;;;7.28;;
81336;SDS011;70799;48.000;10.584;2024-03-08T14:30:05;14.60;;;7.72;;
81336;SDS011;70799;48.000;10.584;2024-03-08T14:32:42;13.13;;;6.30;;
81336;SDS011;70799;48.000;10.584;2024-03-08T14:35:19;12.00;;;6.43;;
81336;SDS011;70799;48.000;10.584;2024-03-08T14:37:57;12.73;;;6.90;;
81336;SDS011;70799;48.000;10.584;2024-03-08T14:40:36;17.13;;;8.05;;
81336;SDS011;70799;48.000;10.584;2024-03-08T14:43:12;14.90;;;7.95;;
81336;SDS011;70799;48.000;10.584;2024-03-08T14:45:52;13.57;;;6.75;;
81336;SDS011;70799;48.000;10.584;2024-03-08T14:48:28;14.00;;;7.10;;
81336;SDS011;70799;48.000;10.584;2024-03-08T14:51:04;12.70;;;7.25;;
81336;SDS011;70799;48.000;10.584;2024-03-08T14:53:42;14.07;;;7.03;;
81336;SDS011;70799;48.000;10.584;2024-03-08T14:56:18;12.88;;;7.05;;
81336;SDS011;70799;48.000;10.584;2024-03-08T14:58:55;14.23;;;7.50;;
81336;SDS011;70799;48.000;10.584;2024-03-08T15:01:33;13.07;;;6.63;;
81336;SDS011;70799;48.000;10.584;2024-03-08T15:04:09;14.10;;;7.55;;
81336;SDS011;70799;48.000;10.584;2024-03-08T15:06:46;16.65;;;8.50;;
81336;SDS011;70799;48.000;10.584;2024-03-08T15:09:23;15.00;;;7.72;;
81336;SDS011;70799;48.000;10.584;2024-03-08T15:11:59;16.90;;;7.97;;
81336;SDS011;70799;48.000;10.584;2024-03-08T15:14:39;13.77;;;7.97;;
81336;SDS011;70799;48.000;10.584;2024-03-08T15:17:16;12.85;;;6.32;;
81336;SDS011;70799;48.000;10.584;2024-03-08T15:19:55;12.77;;;7.00;;
81336;SDS011;70799;48.000;10.584;2024-03-08T15:22:34;15.65;;;6.63;;
81336;SDS011;70799;48.000;10.584;2024-03-08T15:25:11;14.90;;;7.90;;
81336;SDS011;70799;48.000;10.584;2024-03-08T15:27:52;17.05;;;7.82;;
81336;SDS011;70799;48.000;10.584;2024-03-08T15:30:32;15.63;;;8.55;;
81336;SDS011;70799;48.000;10.584;2024-03-08T15:33:08;18.60;;;8.90;;
81336;SDS011;70799;48.000;10.584;2024-03-08T15:35:44;17.98;;;9.27;;
81336;SDS011;70799;48.000;10.584;2024-03-08T15:38:23;15.88;;;8.15;;
81336;SDS011;70799;48.000;10.584;2024-03-08T15:40:59;16.90;;;8.30;;
81336;SDS011;70799;48.000;10.584;2024-03-08T15:43:39;14.93;;;6.97;;
81336;SDS011;70799;48.000;10.584;2024-03-08T15:46:15;16.40;;;7.80;;